Morgan Center, Vermont
Current Conditions -  °F | °C
As of 1:15 PM on Saturday 25 Oct 2014 (Local Time) from KEFK Reporting Station
Clear Clear  
Wind Chill: 54°   Ceiling: Unl
Heat Index: 54°   Visibility: 10mi
Dew Point: 41°   Wind: 6mph
Humidity: 62%   Direction: 240°WSW
Pressure: 29.62"   Gusts: NA
Location:  44.8955°N, 71.9637°W
Report Text: KEFK 251715Z AUTO 24005KT 10SM CLR 12/05 A2962 RMK AO2 T01220050
Loading
Personal Weather Stations






























Interactive Weather Map
Tropical Storm Tracking
New forecast layout! Learn more

10-Day Weather Forecast

Advertisements
Track Severe Weather on mobile